Terminal Aerodrome Forecast
Issued by NWS Jackson, KY

Home | Current Version | Previous Version | Text Only | Print | Product List | Glossary On
Versions: 1 2 3 4 5 6 7 8 9 10 11 12 13 14 15 16 17 18 19
675
FTUS43 KJKL 242121 AAE
TAFLOZ
TAF AMD
KLOZ 242121Z 2421/2518 15008G17KT P6SM VCTS SCT010CB OVC040
      TEMPO 2421/2422 VRB25KT 1SM TSRA BR BKN015CB
     FM250000 24007KT P6SM SCT020 BKN040
     FM250300 23005KT P6SM VCSH OVC020
     FM250800 23005KT P6SM VCSH OVC010=

USA.gov is the U.S. government's official web portal to all federal, state and local government web resources and services.